Time;durP1;ratioP1;P1;durP2;ratioP2;P2;SDS_P1;SDS_P2;PMS_P1;PMS_P2;Temp;Humidity;BMP_temperature;BMP_pressure;BME280_temperature;BME280_humidity;BME280_pressure;Samples;Min_cycle;Max_cycle;Signal;HPM_P1;HPM_P2
2022/06/03 00:02:00;;;;;;;20.58;12.80;;;21.60;70.10;;;;;;5032116;28;20036;-11
2022/06/03 00:05:03;;;;;;;16.80;13.20;;;21.50;70.60;;;;;;5031897;28;20525;-12
2022/06/03 00:07:54;;;;;;;17.50;14.10;;;21.50;70.30;;;;;;5032109;28;20025;-12
2022/06/03 00:10:47;;;;;;;17.55;12.30;;;21.50;70.10;;;;;;5031698;28;20045;-12
2022/06/03 00:13:48;;;;;;;18.57;13.20;;;21.40;70.10;;;;;;5032314;28;20033;-12
2022/06/03 00:16:42;;;;;;;18.77;12.32;;;21.40;71.10;;;;;;4982201;28;20072;-13
2022/06/03 00:19:40;;;;;;;18.17;12.55;;;21.40;70.60;;;;;;5031677;28;20148;-12
2022/06/03 00:22:37;;;;;;;19.10;12.70;;;21.30;71.50;;;;;;5073840;28;20400;-11
2022/06/03 00:25:06;;;;;;;16.75;12.35;;;21.20;71.10;;;;;;5073291;28;20025;-12
2022/06/03 00:27:47;;;;;;;18.17;13.20;;;21.20;70.90;;;;;;5073337;28;20033;-12
2022/06/03 00:30:33;;;;;;;19.30;13.38;;;21.10;71.40;;;;;;5073418;28;20048;-12
2022/06/03 00:33:05;;;;;;;22.27;16.05;;;20.90;71.70;;;;;;5073863;28;20021;-12
2022/06/03 00:35:34;;;;;;;24.92;16.83;;;20.90;73.10;;;;;;5073917;28;20029;-11
2022/06/03 00:38:30;;;;;;;20.60;16.17;;;20.80;73.50;;;;;;5073786;28;20056;-12
2022/06/03 00:41:07;;;;;;;22.98;15.52;;;20.70;74.00;;;;;;5073746;28;20024;-12
2022/06/03 00:43:58;;;;;;;20.60;14.95;;;20.70;73.70;;;;;;5073648;28;20028;-11
2022/06/03 00:46:54;;;;;;;19.52;14.88;;;20.60;74.50;;;;;;5073443;28;20040;-12
2022/06/03 00:49:40;;;;;;;20.45;15.45;;;20.60;73.60;;;;;;5073458;28;20040;-11
2022/06/03 00:52:24;;;;;;;21.50;13.68;;;20.60;73.60;;;;;;5073593;28;20017;-12
2022/06/03 00:54:56;;;;;;;;;;;20.50;73.50;;;;;;5074313;28;20025;-12
2022/06/03 00:57:24;;;;;;;19.50;14.02;;;20.50;76.20;;;;;;5073422;28;20004;-12
2022/06/03 01:00:15;;;;;;;22.92;15.18;;;20.40;74.60;;;;;;5073332;28;20024;-12
2022/06/03 01:03:18;;;;;;;25.02;16.88;;;20.40;75.10;;;;;;5073188;28;20038;-11
2022/06/03 01:06:11;;;;;;;23.08;16.60;;;20.40;75.00;;;;;;5071885;28;20060;-11
2022/06/03 01:09:19;;;;;;;19.80;15.50;;;20.40;74.10;;;;;;5072808;28;20040;-11
2022/06/03 01:12:16;;;;;;;22.55;15.93;;;20.40;74.90;;;;;;5030776;28;20508;-11
2022/06/03 01:14:58;;;;;;;19.50;14.80;;;20.30;76.00;;;;;;5030983;28;20112;-12
2022/06/03 01:18:03;;;;;;;19.17;13.75;;;20.20;75.40;;;;;;5031055;28;20057;-11
2022/06/03 01:20:53;;;;;;;15.82;12.40;;;20.20;75.50;;;;;;5031503;28;20139;-11
2022/06/03 01:23:50;;;;;;;18.40;13.30;;;20.30;74.50;;;;;;5031375;28;20049;-12
2022/06/03 01:26:54;;;;;;;18.08;14.48;;;20.20;74.70;;;;;;5030824;28;20034;-11
2022/06/03 01:29:49;;;;;;;20.67;13.85;;;20.20;74.80;;;;;;5029205;28;20037;-12
2022/06/03 01:32:32;;;;;;;22.17;16.33;;;20.20;74.50;;;;;;5030062;28;20421;-12
2022/06/03 01:35:13;;;;;;;16.67;13.45;;;20.20;74.60;;;;;;5031062;28;20026;-11
2022/06/03 01:38:18;;;;;;;14.30;10.95;;;20.10;74.60;;;;;;5033062;28;20087;-11
2022/06/03 01:41:13;;;;;;;19.67;12.98;;;20.10;74.50;;;;;;5034669;28;20496;-12
2022/06/03 01:43:59;;;;;;;20.30;12.80;;;20.20;74.40;;;;;;5035222;28;20548;-11
2022/06/03 01:46:28;;;;;;;22.10;15.45;;;20.10;74.50;;;;;;5067162;28;20060;-11
2022/06/03 01:48:57;;;;;;;18.40;13.90;;;20.10;74.00;;;;;;5076536;28;20158;-12
2022/06/03 01:51:50;;;;;;;18.08;14.55;;;20.10;74.00;;;;;;5076506;28;20142;-12
2022/06/03 01:54:47;;;;;;;15.38;12.90;;;20.10;74.00;;;;;;5076569;28;20024;-12
2022/06/03 01:57:43;;;;;;;14.73;10.93;;;20.10;73.90;;;;;;5076454;28;20447;-12
2022/06/03 02:00:12;;;;;;;19.20;14.23;;;20.10;73.70;;;;;;5076287;28;20429;-13
2022/06/03 02:03:02;;;;;;;17.73;12.73;;;20.10;73.80;;;;;;5076922;28;20040;-12
2022/06/03 02:05:47;;;;;;;16.70;12.13;;;20.10;73.80;;;;;;5076261;28;20488;-12
2022/06/03 02:08:15;;;;;;;16.88;11.48;;;20.10;73.70;;;;;;5076716;28;20064;-11
2022/06/03 02:11:09;;;;;;;17.45;12.07;;;20.10;73.60;;;;;;5075966;28;20040;-11
2022/06/03 02:13:50;;;;;;;15.63;11.77;;;20.10;73.80;;;;;;5076755;28;20028;-12
2022/06/03 02:16:53;;;;;;;15.13;11.85;;;20.10;73.60;;;;;;5076051;28;20073;-12
2022/06/03 02:19:44;;;;;;;16.85;12.70;;;20.10;73.80;;;;;;5075977;28;20029;-12
2022/06/03 02:22:28;;;;;;;18.52;13.40;;;20.00;73.90;;;;;;5075992;28;20567;-12
2022/06/03 02:25:22;;;;;;;15.52;12.20;;;19.90;73.90;;;;;;5075947;28;20028;-13
2022/06/03 02:28:18;;;;;;;16.42;12.43;;;19.90;74.00;;;;;;5076075;28;20048;-13
2022/06/03 02:31:21;;;;;;;17.10;12.90;;;19.90;74.10;;;;;;5075894;28;20464;-12
2022/06/03 02:34:06;;;;;;;16.98;13.27;;;19.80;74.30;;;;;;5076311;28;20024;-12
2022/06/03 02:36:50;;;;;;;17.60;12.20;;;19.80;74.20;;;;;;5076172;28;20043;-12
2022/06/03 02:39:43;;;;;;;16.85;13.18;;;19.80;74.30;;;;;;5075618;28;20043;-12
2022/06/03 02:42:15;;;;;;;15.45;12.38;;;19.70;74.80;;;;;;5075689;28;20016;-12
2022/06/03 02:45:03;;;;;;;18.45;13.35;;;19.60;75.30;;;;;;5075462;28;20511;-13
2022/06/03 02:47:59;;;;;;;22.10;16.00;;;19.40;76.20;;;;;;5075542;28;20431;-12
2022/06/03 02:51:03;;;;;;;25.67;17.77;;;19.30;76.80;;;;;;5075233;28;20032;-12
2022/06/03 02:53:56;;;;;;;22.15;17.48;;;19.10;77.40;;;;;;5052242;28;20024;-12
2022/06/03 02:56:42;;;;;;;22.77;17.70;;;19.00;78.70;;;;;;5075483;28;20035;-12
2022/06/03 02:59:26;;;;;;;26.63;19.65;;;18.90;79.20;;;;;;5075531;28;20041;-13
2022/06/03 03:02:13;;;;;;;26.38;19.27;;;18.90;79.10;;;;;;5075689;28;20040;-12
2022/06/03 03:05:04;;;;;;;19.38;15.02;;;18.90;78.60;;;;;;5076195;28;20025;-12
2022/06/03 03:07:54;;;;;;;21.88;16.17;;;18.90;78.60;;;;;;5075499;28;20043;-12
2022/06/03 03:10:32;;;;;;;27.98;20.08;;;18.90;78.20;;;;;;5073588;28;20062;-12
2022/06/03 03:13:19;;;;;;;23.60;18.25;;;18.90;77.80;;;;;;5074981;28;20033;-13
2022/06/03 03:16:23;;;;;;;20.85;15.73;;;19.00;77.80;;;;;;5073734;28;20361;-12
2022/06/03 03:19:08;;;;;;;21.75;16.45;;;19.10;77.40;;;;;;5073801;28;20020;-12
2022/06/03 03:21:55;;;;;;;31.55;23.00;;;19.10;77.20;;;;;;5075118;28;20081;-14
2022/06/03 03:24:46;;;;;;;25.95;17.02;;;19.10;77.30;;;;;;5073436;28;20033;-12
2022/06/03 03:27:21;;;;;;;22.63;15.80;;;19.20;77.00;;;;;;5074738;28;20507;-12
2022/06/03 03:30:00;;;;;;;22.13;16.00;;;19.20;76.80;;;;;;5074511;28;20498;-12
2022/06/03 03:32:52;;;;;;;18.48;14.50;;;19.20;76.80;;;;;;5074460;28;20385;-12
2022/06/03 03:35:27;;;;;;;21.27;15.38;;;19.30;76.90;;;;;;5074929;28;20016;-12
2022/06/03 03:38:11;;;;;;;21.30;16.42;;;19.30;76.80;;;;;;5074898;28;20032;-12
2022/06/03 03:40:59;;;;;;;31.35;19.23;;;19.30;76.90;;;;;;5074237;28;20040;-12
2022/06/03 03:43:40;;;;;;;24.13;18.15;;;19.40;77.00;;;;;;5075521;28;20116;-12
2022/06/03 03:46:20;;;;;;;20.58;14.25;;;19.40;76.90;;;;;;5074194;28;20021;-13
2022/06/03 03:48:58;;;;;;;20.65;16.23;;;19.30;76.70;;;;;;5074596;28;20060;-12
2022/06/03 03:51:39;;;;;;;20.00;15.55;;;19.40;76.70;;;;;;5074285;28;20039;-12
2022/06/03 03:54:40;;;;;;;21.77;16.98;;;19.40;76.70;;;;;;5074527;28;20044;-12
2022/06/03 03:57:12;;;;;;;20.48;15.38;;;19.40;77.10;;;;;;5074594;28;20024;-12
2022/06/03 04:00:06;;;;;;;25.65;16.98;;;19.40;76.80;;;;;;5074227;28;20056;-12
2022/06/03 04:02:32;;;;;;;23.25;15.50;;;19.40;76.80;;;;;;5073794;28;20453;-13
2022/06/03 04:05:10;;;;;;;22.85;15.52;;;19.40;76.70;;;;;;5074228;28;20074;-13
2022/06/03 04:08:13;;;;;;;22.98;17.58;;;19.40;76.90;;;;;;5073965;28;20027;-12
2022/06/03 04:11:14;;;;;;;22.38;17.00;;;19.40;77.10;;;;;;5073872;28;20119;-13
2022/06/03 04:14:16;;;;;;;24.92;17.33;;;19.40;76.90;;;;;;5074467;28;20028;-13
2022/06/03 04:17:10;;;;;;;22.42;16.27;;;19.40;77.00;;;;;;5074370;28;20032;-12
2022/06/03 04:19:54;;;;;;;21.83;16.63;;;19.50;77.00;;;;;;5074069;28;20032;-13
2022/06/03 04:22:47;;;;;;;20.75;15.63;;;19.50;76.90;;;;;;5073526;28;20638;-12
2022/06/03 04:25:21;;;;;;;25.20;16.42;;;19.60;77.20;;;;;;5073660;28;20504;-13
2022/06/03 04:28:06;;;;;;;22.35;14.95;;;19.70;76.70;;;;;;5073560;28;20082;-12
2022/06/03 04:30:51;;;;;;;23.95;15.75;;;19.80;76.70;;;;;;5073303;28;20041;-12
2022/06/03 04:33:35;;;;;;;21.27;16.17;;;19.90;76.80;;;;;;5072240;28;20024;-12
2022/06/03 04:36:23;;;;;;;21.95;15.43;;;20.00;76.40;;;;;;5073696;28;20024;-11
2022/06/03 04:39:26;;;;;;;22.77;15.77;;;20.10;76.70;;;;;;5073395;28;20484;-12
2022/06/03 04:42:10;;;;;;;21.67;16.23;;;20.20;76.50;;;;;;5073610;28;20480;-12
2022/06/03 04:44:36;;;;;;;;;;;20.40;76.30;;;;;;5073464;28;20024;-12
2022/06/03 04:47:50;;;;;;;22.58;16.23;;;20.40;77.00;;;;;;5073145;28;19916;-12
2022/06/03 04:50:22;;;;;;;26.35;18.75;;;20.50;76.10;;;;;;5035781;28;20117;-12
2022/06/03 04:53:25;;;;;;;24.42;18.15;;;20.60;75.60;;;;;;5073544;28;20119;-11
2022/06/03 04:56:28;;;;;;;26.17;20.17;;;20.70;75.70;;;;;;5073513;28;20040;-11
2022/06/03 04:59:46;;;;;;;21.42;17.83;;;20.80;75.60;;;;;;5073470;28;20082;-13
2022/06/03 05:02:36;;;;;;;21.30;15.57;;;20.90;75.40;;;;;;5073116;28;20029;-13
2022/06/03 05:05:17;;;;;;;22.48;18.50;;;21.00;75.10;;;;;;5073417;28;20024;-11
2022/06/03 05:08:00;;;;;;;22.90;16.55;;;21.10;75.60;;;;;;5073086;28;20515;-12
2022/06/03 05:10:59;;;;;;;24.77;17.97;;;21.30;75.00;;;;;;5071688;28;20028;-13
2022/06/03 05:13:42;;;;;;;22.85;17.08;;;21.40;75.20;;;;;;5073114;28;20051;-12
2022/06/03 05:16:29;;;;;;;33.83;23.55;;;21.50;74.70;;;;;;5073258;28;20024;-13
2022/06/03 05:18:55;;;;;;;31.42;23.27;;;21.60;75.10;;;;;;5073030;28;20509;-12
2022/06/03 05:21:55;;;;;;;28.25;22.00;;;21.70;74.50;;;;;;5073187;28;20032;-12
2022/06/03 05:24:51;;;;;;;25.48;20.63;;;21.90;74.70;;;;;;5073050;28;20036;-12
2022/06/03 05:27:35;;;;;;;28.77;23.77;;;22.00;74.20;;;;;;5073300;28;20048;-12
2022/06/03 05:30:20;;;;;;;22.63;18.77;;;22.10;74.20;;;;;;5072627;28;20036;-12
2022/06/03 05:33:10;;;;;;;28.08;21.75;;;22.20;73.70;;;;;;5072846;28;20032;-12
2022/06/03 05:36:13;;;;;;;31.70;23.77;;;22.40;73.60;;;;;;5073155;28;20508;-12
2022/06/03 05:39:17;;;;;;;29.95;21.70;;;22.50;73.70;;;;;;5072714;28;20116;-12
2022/06/03 05:45:23;;;;;;;29.80;23.13;;;22.70;73.10;;;;;;5072980;28;20081;-12
2022/06/03 05:48:15;;;;;;;22.63;18.25;;;22.90;73.40;;;;;;5073064;28;20778;-11
2022/06/03 05:50:47;;;;;;;25.98;19.75;;;23.10;72.70;;;;;;5073037;28;20032;-12
2022/06/03 05:53:34;;;;;;;27.00;19.23;;;23.20;72.30;;;;;;5072707;28;20480;-12
2022/06/03 05:56:38;;;;;;;28.05;18.35;;;23.40;71.80;;;;;;5072961;28;20286;-12
2022/06/03 05:59:12;;;;;;;27.92;20.30;;;23.60;71.60;;;;;;5071417;28;20082;-12
2022/06/03 06:01:56;;;;;;;26.13;20.30;;;23.80;70.80;;;;;;5072464;28;20028;-13
2022/06/03 06:04:54;;;;;;;24.90;18.95;;;23.90;70.60;;;;;;5072747;28;20158;-11
2022/06/03 06:07:54;;;;;;;22.65;16.92;;;24.00;68.70;;;;;;5072785;28;20024;-12
2022/06/03 06:10:30;;;;;;;19.05;14.90;;;24.10;68.80;;;;;;5072260;28;20041;-13
2022/06/03 06:13:38;;;;;;;15.32;12.15;;;24.20;68.60;;;;;;5072768;28;20078;-12
2022/06/03 06:16:12;;;;;;;14.10;11.15;;;24.30;65.60;;;;;;5072532;28;20103;-12
2022/06/03 06:18:41;;;;;;;18.92;11.10;;;24.50;65.90;;;;;;5072204;28;20024;-12
2022/06/03 06:21:26;;;;;;;15.27;10.75;;;24.60;64.50;;;;;;5072391;28;20035;-12
2022/06/03 06:24:10;;;;;;;14.32;10.65;;;24.80;65.20;;;;;;5073464;28;20031;-12
2022/06/03 06:26:48;;;;;;;12.82;10.75;;;25.00;65.00;;;;;;5075712;28;20033;-12
2022/06/03 06:29:35;;;;;;;12.50;10.20;;;25.20;64.50;;;;;;5076014;28;20032;-12
2022/06/03 06:32:22;;;;;;;13.10;9.77;;;25.40;63.30;;;;;;5076125;28;20044;-13
2022/06/03 06:35:00;;;;;;;17.35;12.13;;;25.50;63.30;;;;;;5076395;28;20020;-12
2022/06/03 06:37:50;;;;;;;16.10;11.63;;;25.60;62.70;;;;;;5075662;28;20024;-12
2022/06/03 06:40:34;;;;;;;12.75;9.95;;;25.80;62.40;;;;;;5075869;28;20028;-12
2022/06/03 06:43:27;;;;;;;15.15;10.70;;;25.90;62.90;;;;;;5076014;28;20028;-11
2022/06/03 06:46:25;;;;;;;16.00;11.18;;;26.00;61.90;;;;;;5075531;28;20037;-12
2022/06/03 06:49:15;;;;;;;14.38;11.45;;;26.00;61.50;;;;;;5033435;28;20450;-13
2022/06/03 06:51:55;;;;;;;13.40;10.65;;;26.10;61.30;;;;;;5033141;28;20041;-12
2022/06/03 06:54:43;;;;;;;16.02;11.30;;;26.20;61.70;;;;;;5033570;28;20508;-12
2022/06/03 06:57:13;;;;;;;13.75;10.90;;;26.40;61.10;;;;;;5033388;28;20034;-11
2022/06/03 06:59:56;;;;;;;15.18;12.07;;;26.50;61.00;;;;;;5033889;28;20029;-12
2022/06/03 07:02:32;;;;;;;13.90;9.00;;;26.80;60.90;;;;;;5016540;28;20030;-12
2022/06/03 07:05:17;;;;;;;11.48;8.57;;;26.90;60.00;;;;;;5033269;28;20025;-12
2022/06/03 07:07:56;;;;;;;12.25;9.30;;;27.20;58.90;;;;;;5033515;28;20538;-12
2022/06/03 07:10:25;;;;;;;9.45;7.50;;;27.30;57.20;;;;;;5032899;28;20069;-9
2022/06/03 07:13:01;;;;;;;11.25;7.78;;;27.40;57.70;;;;;;5032998;28;20033;-12
2022/06/03 07:16:05;;;;;;;9.57;8.18;;;27.40;55.20;;;;;;5032980;28;20079;-10
2022/06/03 07:21:57;;;;;;;13.82;8.45;;;27.20;56.00;;;;;;5033608;28;20091;-11
2022/06/03 07:24:39;;;;;;;11.05;7.88;;;27.40;55.70;;;;;;5032698;28;20167;-11
2022/06/03 07:27:44;;;;;;;9.77;8.10;;;27.40;56.30;;;;;;5075120;28;20035;-12
2022/06/03 07:30:21;;;;;;;10.75;7.47;;;27.60;56.80;;;;;;5051725;28;20044;-11
2022/06/03 07:32:57;;;;;;;9.77;6.70;;;27.90;56.40;;;;;;5075013;28;20025;-11
2022/06/03 07:35:39;;;;;;;9.60;6.97;;;28.10;55.50;;;;;;5074582;28;20028;-11
2022/06/03 07:38:35;;;;;;;8.40;6.97;;;28.10;55.80;;;;;;5074879;28;20063;-12
2022/06/03 07:41:08;;;;;;;9.13;6.72;;;28.20;55.80;;;;;;5069448;28;20114;-12
2022/06/03 07:43:58;;;;;;;9.95;6.60;;;28.40;55.10;;;;;;5074769;28;20043;-12
2022/06/03 07:46:37;;;;;;;10.32;7.90;;;28.40;54.70;;;;;;5073880;28;20087;-11
2022/06/03 07:49:06;;;;;;;10.88;7.25;;;28.40;54.70;;;;;;5072998;28;20391;-11
2022/06/03 07:51:38;;;;;;;10.80;6.85;;;28.40;53.90;;;;;;5074230;28;20116;-12
2022/06/03 07:54:23;;;;;;;12.95;8.13;;;28.40;54.40;;;;;;5074268;28;20028;-12
2022/06/03 07:56:49;;;;;;;9.68;6.45;;;28.40;52.80;;;;;;5074219;28;20047;-12
2022/06/03 07:59:20;;;;;;;9.52;7.18;;;28.40;54.20;;;;;;5074139;28;20024;-12
2022/06/03 08:02:19;;;;;;;12.10;8.10;;;28.30;55.00;;;;;;5074054;28;20028;-12
2022/06/03 08:04:48;;;;;;;10.02;6.65;;;28.30;54.30;;;;;;5032143;28;20500;-12
2022/06/03 08:13:00;;;;;;;12.23;7.43;;;28.40;55.00;;;;;;5032343;28;20068;-11
2022/06/03 08:15:31;;;;;;;10.13;7.43;;;28.40;54.20;;;;;;5031842;28;20057;-11
2022/06/03 08:18:00;;;;;;;9.77;7.82;;;28.20;54.10;;;;;;5015336;28;20064;-12
2022/06/03 08:20:28;;;;;;;10.25;7.78;;;28.10;54.70;;;;;;5031571;28;20485;-11
2022/06/03 08:22:55;;;;;;;7.93;7.10;;;28.00;55.10;;;;;;5032301;28;20040;-12
2022/06/03 08:25:30;;;;;;;13.18;7.18;;;27.90;55.20;;;;;;5031727;28;20037;-11
2022/06/03 08:27:59;;;;;;;12.45;7.22;;;27.90;54.90;;;;;;5031719;28;20513;-12
2022/06/03 08:30:28;;;;;;;11.13;8.02;;;27.80;55.00;;;;;;5031231;28;20536;-12
2022/06/03 08:33:05;;;;;;;8.25;6.35;;;27.70;55.40;;;;;;5032110;28;20087;-11
2022/06/03 08:35:41;;;;;;;10.60;6.82;;;27.70;55.50;;;;;;5032161;28;20444;-11
2022/06/03 08:38:34;;;;;;;10.48;7.10;;;27.80;56.00;;;;;;5032372;28;20433;-12
2022/06/03 08:41:06;;;;;;;9.17;6.90;;;27.80;55.90;;;;;;5051950;28;20423;-11
2022/06/03 08:44:06;;;;;;;9.50;6.35;;;27.90;56.40;;;;;;5073944;28;20115;-11
2022/06/03 08:46:56;;;;;;;9.13;6.28;;;27.90;54.50;;;;;;5070928;28;20052;-12
2022/06/03 08:49:27;;;;;;;9.30;6.40;;;28.10;55.10;;;;;;5073218;28;20036;-11
2022/06/03 08:52:05;;;;;;;9.10;6.68;;;28.20;55.00;;;;;;5073603;28;20028;-12
2022/06/03 08:54:47;;;;;;;10.05;6.75;;;28.30;54.00;;;;;;5073829;28;20028;-12
2022/06/03 08:57:18;;;;;;;9.73;6.18;;;28.40;54.70;;;;;;5073671;28;20115;-11
2022/06/03 09:00:03;;;;;;;9.05;6.40;;;28.60;54.10;;;;;;5073393;28;20039;-12
2022/06/03 09:02:37;;;;;;;11.02;6.22;;;28.80;53.10;;;;;;5073088;28;20488;-13
2022/06/03 09:05:31;;;;;;;7.13;5.30;;;29.10;52.90;;;;;;5073203;28;20021;-11
2022/06/03 09:08:03;;;;;;;7.97;5.82;;;29.50;52.20;;;;;;5073103;28;20432;-11
2022/06/03 09:10:40;;;;;;;7.88;5.75;;;30.00;51.00;;;;;;5072865;28;20055;-12
2022/06/03 09:13:31;;;;;;;11.13;6.18;;;30.40;50.90;;;;;;5073936;28;20021;-11
2022/06/03 09:15:59;;;;;;;9.88;6.00;;;30.90;49.40;;;;;;5073125;28;20095;-11
2022/06/03 09:18:36;;;;;;;10.68;5.97;;;31.20;49.10;;;;;;5072863;28;20029;-12
2022/06/03 09:21:10;;;;;;;9.40;5.72;;;31.40;48.30;;;;;;5071813;28;20021;-11
2022/06/03 09:23:42;;;;;;;8.35;5.53;;;31.80;47.40;;;;;;5073323;28;20055;-12
2022/06/03 09:26:23;;;;;;;8.00;5.75;;;32.00;46.60;;;;;;5072900;28;20477;-11
2022/06/03 09:28:52;;;;;;;6.30;5.30;;;32.10;45.60;;;;;;5072801;28;20037;-12
2022/06/03 09:31:20;;;;;;;6.75;5.18;;;32.30;46.00;;;;;;5072774;28;20029;-12
2022/06/03 09:33:47;;;;;;;8.18;5.55;;;32.50;45.30;;;;;;5072765;28;20036;-12
2022/06/03 09:36:18;;;;;;;8.27;5.50;;;32.90;44.40;;;;;;5073092;28;20024;-12
2022/06/03 09:39:10;;;;;;;6.07;5.03;;;33.10;44.50;;;;;;5073108;28;20033;-12
2022/06/03 09:41:46;;;;;;;9.13;5.82;;;33.40;43.80;;;;;;5072841;28;20475;-12
2022/06/03 09:44:15;;;;;;;9.85;5.97;;;33.60;43.00;;;;;;5072760;28;20021;-12
2022/06/03 09:46:43;;;;;;;5.95;5.30;;;33.70;42.60;;;;;;5072383;28;20504;-11
2022/06/03 09:49:11;;;;;;;6.90;5.45;;;33.90;42.60;;;;;;5072933;28;20112;-12
2022/06/03 09:51:57;;;;;;;6.97;5.22;;;34.00;40.60;;;;;;5073284;28;20021;-12
2022/06/03 09:54:28;;;;;;;6.68;5.20;;;33.80;41.60;;;;;;5072605;28;20020;-12
2022/06/03 09:56:59;;;;;;;6.82;5.40;;;33.80;41.80;;;;;;5072922;28;20484;-12
2022/06/03 09:59:27;;;;;;;5.75;4.60;;;33.60;41.70;;;;;;5076280;28;20480;-12
2022/06/03 10:01:53;;;;;;;7.10;5.13;;;33.70;42.70;;;;;;5076593;28;20036;-11
2022/06/03 10:04:23;;;;;;;7.50;4.75;;;34.00;41.40;;;;;;5076150;28;20028;-12
2022/06/03 10:06:50;;;;;;;7.75;5.50;;;34.10;40.80;;;;;;5076277;28;20029;-11
2022/06/03 10:17:49;;;;;;;5.40;4.72;;;34.20;42.20;;;;;;5076441;28;20034;-11
2022/06/03 10:20:16;;;;;;;5.73;4.90;;;34.20;41.40;;;;;;5076246;28;20074;-12
2022/06/03 10:22:45;;;;;;;6.32;4.88;;;34.10;42.10;;;;;;5076055;28;20045;-12
2022/06/03 10:25:11;;;;;;;6.50;4.90;;;33.90;42.80;;;;;;5076024;28;20487;-12
2022/06/03 10:27:37;;;;;;;6.75;5.50;;;33.70;42.70;;;;;;5076741;28;20051;-11
2022/06/03 10:30:05;;;;;;;6.30;5.03;;;33.50;43.50;;;;;;5076026;28;20072;-11
2022/06/03 10:32:33;;;;;;;6.45;5.07;;;33.40;43.30;;;;;;5075616;28;20094;-12
2022/06/03 10:35:16;;;;;;;6.05;4.70;;;33.40;43.90;;;;;;5076060;28;20036;-11
2022/06/03 10:37:52;;;;;;;9.95;5.32;;;33.40;42.70;;;;;;5076122;28;20016;-11
2022/06/03 10:40:21;;;;;;;8.80;4.90;;;33.30;43.70;;;;;;5075513;28;20396;-11
2022/06/03 10:42:50;;;;;;;6.85;4.70;;;33.40;44.10;;;;;;5076245;28;20035;-12
2022/06/03 10:45:16;;;;;;;9.02;4.80;;;33.40;43.10;;;;;;5075829;28;20115;-11
2022/06/03 10:47:44;;;;;;;7.20;5.30;;;33.50;42.70;;;;;;5075438;28;20079;-11
2022/06/03 10:50:33;;;;;;;7.47;4.68;;;33.50;42.90;;;;;;5075740;28;20033;-11
2022/06/03 11:01:57;;;;;;;6.72;5.40;;;33.50;43.00;;;;;;5075591;28;20043;-11
2022/06/03 11:04:33;;;;;;;7.95;5.20;;;33.40;43.00;;;;;;5075614;28;20380;-11
2022/06/03 11:07:03;;;;;;;8.40;4.57;;;33.40;43.70;;;;;;5075209;28;20029;-11
2022/06/03 11:09:29;;;;;;;8.43;5.30;;;33.30;43.90;;;;;;5074517;28;20498;-12
2022/06/03 11:12:05;;;;;;;7.40;4.72;;;33.30;43.80;;;;;;5075375;28;20020;-11
2022/06/03 11:14:35;;;;;;;5.78;4.15;;;33.30;43.40;;;;;;5075352;28;20102;-12
2022/06/03 11:17:17;;;;;;;7.45;5.28;;;33.30;44.00;;;;;;5075181;28;20111;-12
2022/06/03 11:19:49;;;;;;;8.03;4.70;;;33.40;43.30;;;;;;5075035;28;20055;-11
2022/06/03 11:22:23;;;;;;;6.70;4.85;;;33.30;43.40;;;;;;5074822;28;20484;-12
2022/06/03 11:25:14;;;;;;;7.65;5.03;;;33.20;43.70;;;;;;5074932;28;20021;-11
2022/06/03 11:27:57;;;;;;;6.80;4.60;;;33.10;43.90;;;;;;5069022;28;20021;-11
2022/06/03 11:30:52;;;;;;;6.57;4.70;;;33.10;43.50;;;;;;5074518;28;20119;-12
2022/06/03 11:33:28;;;;;;;5.65;4.50;;;33.10;43.50;;;;;;5074926;28;20039;-11
2022/06/03 11:36:09;;;;;;;6.32;5.25;;;33.20;43.10;;;;;;5074930;28;20024;-12
2022/06/03 11:38:52;;;;;;;10.25;5.72;;;33.20;43.70;;;;;;5074339;28;20028;-11
2022/06/03 11:41:29;;;;;;;6.27;5.10;;;33.20;44.10;;;;;;5074915;28;20027;-11
2022/06/03 11:44:04;;;;;;;9.05;5.18;;;33.30;43.20;;;;;;5074526;28;20434;-11
2022/06/03 11:46:48;;;;;;;7.10;5.60;;;33.40;43.60;;;;;;5074202;28;20040;-11
2022/06/03 11:49:19;;;;;;;5.82;5.13;;;33.50;43.70;;;;;;5074339;28;20028;-11
2022/06/03 11:51:46;;;;;;;6.40;4.80;;;33.60;43.50;;;;;;5074651;28;20028;-11
2022/06/03 11:54:15;;;;;;;6.28;4.80;;;33.70;42.00;;;;;;5074211;28;20056;-11
2022/06/03 11:56:43;;;;;;;7.65;4.82;;;33.80;42.50;;;;;;5074228;28;20025;-11
2022/06/03 11:59:12;;;;;;;6.93;4.93;;;33.90;42.30;;;;;;5074600;28;20476;-11
2022/06/03 12:01:49;;;;;;;8.73;4.78;;;34.00;42.30;;;;;;5074344;28;20032;-12
2022/06/03 12:04:40;;;;;;;7.72;5.50;;;34.00;42.30;;;;;;5074071;28;20035;-12
2022/06/03 12:07:36;;;;;;;8.70;5.45;;;34.00;42.50;;;;;;5074399;28;20024;-13
2022/06/03 12:10:11;;;;;;;6.80;5.72;;;33.90;42.40;;;;;;5074503;28;20060;-12
2022/06/03 12:13:15;;;;;;;6.70;5.72;;;33.40;43.00;;;;;;5072524;28;20035;-13
2022/06/03 12:15:53;;;;;;;6.57;4.78;;;33.20;43.70;;;;;;5058539;28;20025;-11
2022/06/03 12:18:31;;;;;;;9.32;4.95;;;33.10;43.00;;;;;;5073664;28;20472;-11
2022/06/03 12:21:04;;;;;;;5.15;4.60;;;33.00;43.60;;;;;;5073948;28;20510;-11
2022/06/03 12:23:35;;;;;;;;;;;33.00;43.80;;;;;;5074466;28;20024;-12
2022/06/03 12:26:04;;;;;;;6.55;4.90;;;33.00;43.50;;;;;;5073640;28;19919;-12
2022/06/03 12:28:41;;;;;;;7.00;5.05;;;32.90;43.70;;;;;;5073284;28;20105;-11
2022/06/03 12:31:19;;;;;;;8.55;5.30;;;32.80;43.90;;;;;;5073769;28;20033;-13
2022/06/03 12:34:13;;;;;;;7.20;5.20;;;32.70;44.00;;;;;;5073890;28;20044;-11
2022/06/03 12:36:51;;;;;;;5.93;4.50;;;32.60;44.80;;;;;;5073527;28;20484;-12
2022/06/03 12:39:44;;;;;;;6.75;4.60;;;32.50;45.00;;;;;;5073492;28;20040;-12
2022/06/03 12:42:12;;;;;;;6.05;4.50;;;32.40;45.40;;;;;;5073499;28;20388;-12
2022/06/03 12:44:49;;;;;;;8.60;4.93;;;32.30;45.50;;;;;;5074400;28;20055;-11
2022/06/03 12:47:18;;;;;;;7.22;4.93;;;32.20;45.60;;;;;;5073501;28;20052;-11
2022/06/03 12:49:48;;;;;;;6.53;4.90;;;32.20;45.20;;;;;;5073142;28;20407;-10
2022/06/03 12:52:20;;;;;;;6.88;5.00;;;32.10;45.40;;;;;;5073067;28;20032;-11
2022/06/03 12:54:54;;;;;;;7.78;5.30;;;32.00;45.50;;;;;;5073203;28;20039;-11
2022/06/03 12:57:37;;;;;;;7.25;5.35;;;31.90;45.70;;;;;;5073233;28;20025;-10
2022/06/03 13:00:09;;;;;;;8.30;4.90;;;31.70;46.40;;;;;;5073099;28;20396;-11
2022/06/03 13:02:37;;;;;;;7.07;5.30;;;31.50;46.70;;;;;;5073308;28;20429;-10
2022/06/03 13:05:24;;;;;;;8.80;5.15;;;31.50;46.80;;;;;;5073366;28;20025;-10
2022/06/03 13:08:17;;;;;;;8.07;5.22;;;31.30;47.10;;;;;;5073136;28;20488;-11
2022/06/03 13:11:08;;;;;;;8.07;5.03;;;31.20;47.80;;;;;;5073464;28;20047;-12
2022/06/03 13:13:33;;;;;;;8.43;5.05;;;31.00;48.30;;;;;;5073098;28;20033;-12
2022/06/03 13:16:19;;;;;;;5.72;5.10;;;30.90;48.70;;;;;;5072939;28;20029;-12
2022/06/03 13:18:52;;;;;;;6.53;5.15;;;30.90;49.40;;;;;;5072936;28;20358;-11
2022/06/03 13:21:24;;;;;;;7.90;5.72;;;30.80;49.80;;;;;;5073030;28;20053;-11
2022/06/03 13:23:49;;;;;;;73.75;36.33;;;30.70;50.70;;;;;;5073298;28;20095;-11
2022/06/03 13:26:21;;;;;;;48.10;23.35;;;30.70;51.00;;;;;;5073326;28;20052;-12
2022/06/03 13:28:48;;;;;;;33.43;17.70;;;30.50;50.80;;;;;;5072841;28;20040;-12
2022/06/03 13:31:16;;;;;;;19.20;10.55;;;30.40;50.70;;;;;;5073107;28;20267;-11
2022/06/03 13:34:10;;;;;;;13.60;7.70;;;30.30;51.20;;;;;;5075253;28;20032;-11
2022/06/03 13:36:45;;;;;;;9.57;7.00;;;30.30;52.60;;;;;;5076806;28;20029;-11
2022/06/03 13:39:28;;;;;;;9.80;6.38;;;30.10;52.40;;;;;;5077510;28;20483;-11
2022/06/03 13:45:01;;;;;;;7.25;5.78;;;29.70;53.80;;;;;;5077307;28;20035;-12
2022/06/03 13:47:44;;;;;;;7.20;5.07;;;29.60;53.30;;;;;;5076651;28;20074;-11
2022/06/03 13:50:20;;;;;;;7.60;5.00;;;29.70;53.00;;;;;;5076601;28;20098;-12
2022/06/03 13:52:46;;;;;;;7.43;5.43;;;29.70;52.40;;;;;;5077672;28;20028;-12
2022/06/03 13:55:30;;;;;;;8.32;5.15;;;29.70;52.30;;;;;;5076855;28;20491;-12
2022/06/03 13:58:06;;;;;;;6.55;4.80;;;29.70;52.10;;;;;;5077429;28;20338;-11
2022/06/03 14:00:39;;;;;;;9.43;5.57;;;29.80;52.00;;;;;;5076440;28;20035;-12
2022/06/03 14:03:05;;;;;;;;;;;29.80;51.70;;;;;;5075550;28;20063;-10
2022/06/03 14:05:49;;;;;;;7.07;5.20;;;29.80;51.60;;;;;;5076296;28;19944;-11
2022/06/03 14:08:18;;;;;;;8.25;6.10;;;29.80;51.80;;;;;;5076112;28;20029;-12
2022/06/03 14:11:04;;;;;;;12.07;5.65;;;29.70;52.60;;;;;;5075064;28;20116;-12
2022/06/03 14:13:51;;;;;;;8.18;5.70;;;29.50;53.80;;;;;;5076263;28;20028;-12
2022/06/03 14:16:28;;;;;;;7.70;5.40;;;29.40;55.10;;;;;;5075949;28;20380;-12
2022/06/03 14:19:10;;;;;;;11.20;7.30;;;29.20;55.90;;;;;;5076510;28;20029;-12
2022/06/03 14:21:49;;;;;;;10.57;6.18;;;28.90;56.60;;;;;;5076120;28;20029;-12
2022/06/03 14:24:27;;;;;;;10.55;7.47;;;28.60;58.10;;;;;;5075922;28;20112;-13
2022/06/03 14:26:59;;;;;;;15.63;8.73;;;28.30;58.70;;;;;;5076027;28;20512;-13